sensor_id;sensor_type;location;lat;lon;timestamp;temperature;humidity
37846;DHT22;23686;49.828;8.702;2022-12-05T10:06:57;5.00;1.50
37846;DHT22;23686;49.828;8.702;2022-12-05T10:09:43;5.10;1.50
37846;DHT22;23686;49.828;8.702;2022-12-05T10:12:31;5.20;1.50
37846;DHT22;23686;49.828;8.702;2022-12-05T10:17:44;5.40;1.50
37846;DHT22;23686;49.828;8.702;2022-12-05T10:20:18;5.50;1.50
37846;DHT22;23686;49.828;8.702;2022-12-05T10:22:51;5.50;1.00
37846;DHT22;23686;49.828;8.702;2022-12-05T10:25:19;5.60;5.50
37846;DHT22;23686;49.828;8.702;2022-12-05T10:27:51;5.60;4.70
37846;DHT22;23686;49.828;8.702;2022-12-05T10:30:20;5.70;6.40
37846;DHT22;23686;49.828;8.702;2022-12-05T10:32:56;5.70;14.80
37846;DHT22;23686;49.828;8.702;2022-12-05T10:35:25;5.70;14.40
37846;DHT22;23686;49.828;8.702;2022-12-05T10:37:54;5.80;13.40
37846;DHT22;23686;49.828;8.702;2022-12-05T10:40:21;5.80;17.10
37846;DHT22;23686;49.828;8.702;2022-12-05T10:42:48;5.80;17.70
37846;DHT22;23686;49.828;8.702;2022-12-05T10:45:24;5.80;16.10
37846;DHT22;23686;49.828;8.702;2022-12-05T10:47:55;5.90;17.40
37846;DHT22;23686;49.828;8.702;2022-12-05T10:50:34;5.90;23.50
37846;DHT22;23686;49.828;8.702;2022-12-05T10:53:01;5.90;21.20
37846;DHT22;23686;49.828;8.702;2022-12-05T10:55:39;5.90;20.60
37846;DHT22;23686;49.828;8.702;2022-12-05T10:58:17;5.90;24.60
37846;DHT22;23686;49.828;8.702;2022-12-05T11:00:50;5.90;24.70
37846;DHT22;23686;49.828;8.702;2022-12-05T11:03:28;5.90;25.80
37846;DHT22;23686;49.828;8.702;2022-12-05T11:05:57;5.90;25.50
37846;DHT22;23686;49.828;8.702;2022-12-05T11:08:26;5.90;26.60
37846;DHT22;23686;49.828;8.702;2022-12-05T11:13:52;5.90;28.80
37846;DHT22;23686;49.828;8.702;2022-12-05T11:16:23;5.90;27.00
37846;DHT22;23686;49.828;8.702;2022-12-05T11:18:49;6.00;32.50
37846;DHT22;23686;49.828;8.702;2022-12-05T11:21:15;6.00;30.90
37846;DHT22;23686;49.828;8.702;2022-12-05T11:23:44;6.00;29.10
37846;DHT22;23686;49.828;8.702;2022-12-05T11:26:35;6.00;27.20
37846;DHT22;23686;49.828;8.702;2022-12-05T11:29:03;6.00;25.90
37846;DHT22;23686;49.828;8.702;2022-12-05T11:31:30;6.00;25.30
37846;DHT22;23686;49.828;8.702;2022-12-05T11:34:00;6.00;25.80
37846;DHT22;23686;49.828;8.702;2022-12-05T11:36:45;6.10;30.20
37846;DHT22;23686;49.828;8.702;2022-12-05T11:39:12;6.10;27.60
37846;DHT22;23686;49.828;8.702;2022-12-05T11:45:12;6.10;28.20
37846;DHT22;23686;49.828;8.702;2022-12-05T11:50:45;6.20;30.10
37846;DHT22;23686;49.828;8.702;2022-12-05T11:56:43;6.20;31.50
37846;DHT22;23686;49.828;8.702;2022-12-05T12:12:34;6.20;29.80
37846;DHT22;23686;49.828;8.702;2022-12-05T12:21:17;6.20;30.50
37846;DHT22;23686;49.828;8.702;2022-12-05T12:32:57;6.20;29.50
37846;DHT22;23686;49.828;8.702;2022-12-05T12:40:45;6.20;27.40
37846;DHT22;23686;49.828;8.702;2022-12-05T12:51:29;6.20;27.00
37846;DHT22;23686;49.828;8.702;2022-12-05T13:02:35;6.30;24.50
37846;DHT22;23686;49.828;8.702;2022-12-05T13:05:22;6.30;25.60
37846;DHT22;23686;49.828;8.702;2022-12-05T13:07:51;6.20;23.20
37846;DHT22;23686;49.828;8.702;2022-12-05T13:10:42;6.30;24.30
37846;DHT22;23686;49.828;8.702;2022-12-05T13:13:17;6.30;21.90
37846;DHT22;23686;49.828;8.702;2022-12-05T13:15:49;6.30;23.30
37846;DHT22;23686;49.828;8.702;2022-12-05T13:18:18;6.30;26.00
37846;DHT22;23686;49.828;8.702;2022-12-05T13:20:47;6.30;27.50
37846;DHT22;23686;49.828;8.702;2022-12-05T13:23:16;6.30;29.00
37846;DHT22;23686;49.828;8.702;2022-12-05T13:25:42;6.30;28.30
37846;DHT22;23686;49.828;8.702;2022-12-05T13:30:56;6.30;28.90
37846;DHT22;23686;49.828;8.702;2022-12-05T13:33:24;6.40;32.30
37846;DHT22;23686;49.828;8.702;2022-12-05T13:35:56;6.40;34.20
37846;DHT22;23686;49.828;8.702;2022-12-05T13:38:40;6.40;35.20
37846;DHT22;23686;49.828;8.702;2022-12-05T13:41:51;6.40;32.00
37846;DHT22;23686;49.828;8.702;2022-12-05T13:44:49;6.40;30.70
37846;DHT22;23686;49.828;8.702;2022-12-05T13:52:38;6.50;36.90
37846;DHT22;23686;49.828;8.702;2022-12-05T13:55:26;6.50;35.80
37846;DHT22;23686;49.828;8.702;2022-12-05T13:57:55;6.50;35.90
37846;DHT22;23686;49.828;8.702;2022-12-05T14:02:53;6.50;36.80
37846;DHT22;23686;49.828;8.702;2022-12-05T14:07:51;6.50;36.60
37846;DHT22;23686;49.828;8.702;2022-12-05T14:12:57;6.50;41.40
37846;DHT22;23686;49.828;8.702;2022-12-05T14:17:55;6.50;38.00
37846;DHT22;23686;49.828;8.702;2022-12-05T14:30:44;6.50;45.50
37846;DHT22;23686;49.828;8.702;2022-12-05T14:33:14;6.50;44.80
37846;DHT22;23686;49.828;8.702;2022-12-05T14:35:44;6.50;43.10
37846;DHT22;23686;49.828;8.702;2022-12-05T14:38:26;6.50;44.40
37846;DHT22;23686;49.828;8.702;2022-12-05T14:40:53;6.50;44.10
37846;DHT22;23686;49.828;8.702;2022-12-05T14:50:46;6.60;48.40
37846;DHT22;23686;49.828;8.702;2022-12-05T14:58:50;6.60;46.50
37846;DHT22;23686;49.828;8.702;2022-12-05T15:06:53;6.50;45.60
37846;DHT22;23686;49.828;8.702;2022-12-05T15:12:09;6.60;43.90
37846;DHT22;23686;49.828;8.702;2022-12-05T15:14:42;6.60;45.60
37846;DHT22;23686;49.828;8.702;2022-12-05T15:17:13;6.50;48.40
37846;DHT22;23686;49.828;8.702;2022-12-05T15:20:03;6.50;46.60
37846;DHT22;23686;49.828;8.702;2022-12-05T15:22:32;6.50;46.60
37846;DHT22;23686;49.828;8.702;2022-12-05T15:25:23;6.50;47.60
37846;DHT22;23686;49.828;8.702;2022-12-05T15:27:54;6.50;45.30
37846;DHT22;23686;49.828;8.702;2022-12-05T15:30:20;6.50;47.40
37846;DHT22;23686;49.828;8.702;2022-12-05T15:32:45;6.50;48.10
37846;DHT22;23686;49.828;8.702;2022-12-05T15:35:12;6.50;49.20
37846;DHT22;23686;49.828;8.702;2022-12-05T15:37:52;6.50;48.30
37846;DHT22;23686;49.828;8.702;2022-12-05T15:40:21;6.50;49.60
37846;DHT22;23686;49.828;8.702;2022-12-05T15:42:52;6.50;49.90
37846;DHT22;23686;49.828;8.702;2022-12-05T15:45:22;6.50;49.10
37846;DHT22;23686;49.828;8.702;2022-12-05T15:48:10;6.50;50.90
37846;DHT22;23686;49.828;8.702;2022-12-05T15:50:46;6.50;50.70
37846;DHT22;23686;49.828;8.702;2022-12-05T15:53:28;6.50;50.60
37846;DHT22;23686;49.828;8.702;2022-12-05T15:56:19;6.50;50.40
37846;DHT22;23686;49.828;8.702;2022-12-05T16:01:20;6.50;48.90
37846;DHT22;23686;49.828;8.702;2022-12-05T16:04:00;6.50;53.20
37846;DHT22;23686;49.828;8.702;2022-12-05T16:06:34;6.50;53.90
37846;DHT22;23686;49.828;8.702;2022-12-05T16:09:05;6.50;53.50
37846;DHT22;23686;49.828;8.702;2022-12-05T16:11:31;6.50;58.00
37846;DHT22;23686;49.828;8.702;2022-12-05T16:13:59;6.50;59.00
37846;DHT22;23686;49.828;8.702;2022-12-05T16:16:35;6.40;62.50
37846;DHT22;23686;49.828;8.702;2022-12-05T16:19:13;6.40;63.20
37846;DHT22;23686;49.828;8.702;2022-12-05T16:22:40;6.40;60.60
37846;DHT22;23686;49.828;8.702;2022-12-05T16:24:57;6.40;62.90
37846;DHT22;23686;49.828;8.702;2022-12-05T16:32:40;6.40;66.70
37846;DHT22;23686;49.828;8.702;2022-12-05T16:35:46;6.40;68.40
37846;DHT22;23686;49.828;8.702;2022-12-05T16:41:02;6.40;67.60
37846;DHT22;23686;49.828;8.702;2022-12-05T16:48:35;6.40;67.70
37846;DHT22;23686;49.828;8.702;2022-12-05T16:51:21;6.40;68.50
37846;DHT22;23686;49.828;8.702;2022-12-05T16:53:52;6.50;72.20
37846;DHT22;23686;49.828;8.702;2022-12-05T16:56:28;6.50;72.30
37846;DHT22;23686;49.828;8.702;2022-12-05T16:58:54;6.50;72.00
37846;DHT22;23686;49.828;8.702;2022-12-05T17:01:25;6.50;70.80
37846;DHT22;23686;49.828;8.702;2022-12-05T17:03:52;6.50;69.80
37846;DHT22;23686;49.828;8.702;2022-12-05T17:06:18;6.50;71.60
37846;DHT22;23686;49.828;8.702;2022-12-05T17:08:46;6.50;74.30
37846;DHT22;23686;49.828;8.702;2022-12-05T17:11:20;6.50;74.00
37846;DHT22;23686;49.828;8.702;2022-12-05T17:13:46;6.50;74.30
37846;DHT22;23686;49.828;8.702;2022-12-05T17:16:16;6.50;75.30
37846;DHT22;23686;49.828;8.702;2022-12-05T17:18:43;6.50;76.30
37846;DHT22;23686;49.828;8.702;2022-12-05T17:21:16;6.50;76.00
37846;DHT22;23686;49.828;8.702;2022-12-05T17:23:43;6.50;76.70
37846;DHT22;23686;49.828;8.702;2022-12-05T17:26:13;6.50;79.60
37846;DHT22;23686;49.828;8.702;2022-12-05T17:28:39;6.50;77.50
37846;DHT22;23686;49.828;8.702;2022-12-05T17:31:05;6.50;78.30
37846;DHT22;23686;49.828;8.702;2022-12-05T17:33:31;6.50;80.10
37846;DHT22;23686;49.828;8.702;2022-12-05T17:35:57;6.50;79.00
37846;DHT22;23686;49.828;8.702;2022-12-05T17:38:22;6.50;79.20
37846;DHT22;23686;49.828;8.702;2022-12-05T17:40:48;6.50;80.80
37846;DHT22;23686;49.828;8.702;2022-12-05T17:43:14;6.50;81.40
37846;DHT22;23686;49.828;8.702;2022-12-05T17:45:40;6.50;83.10
37846;DHT22;23686;49.828;8.702;2022-12-05T17:48:11;6.50;84.60
37846;DHT22;23686;49.828;8.702;2022-12-05T17:50:39;6.50;84.60
37846;DHT22;23686;49.828;8.702;2022-12-05T17:53:05;6.40;86.20
37846;DHT22;23686;49.828;8.702;2022-12-05T17:55:30;6.40;85.90
37846;DHT22;23686;49.828;8.702;2022-12-05T17:57:56;6.40;86.20
37846;DHT22;23686;49.828;8.702;2022-12-05T18:00:23;6.40;85.80
37846;DHT22;23686;49.828;8.702;2022-12-05T18:02:49;6.40;85.80
37846;DHT22;23686;49.828;8.702;2022-12-05T18:05:15;6.40;85.70
37846;DHT22;23686;49.828;8.702;2022-12-05T18:07:42;6.40;86.20
37846;DHT22;23686;49.828;8.702;2022-12-05T18:10:11;6.40;86.30
37846;DHT22;23686;49.828;8.702;2022-12-05T18:12:37;6.40;86.70
37846;DHT22;23686;49.828;8.702;2022-12-05T18:15:04;6.50;82.20
37846;DHT22;23686;49.828;8.702;2022-12-05T18:17:30;6.50;88.00
37846;DHT22;23686;49.828;8.702;2022-12-05T18:19:56;6.50;89.10
37846;DHT22;23686;49.828;8.702;2022-12-05T18:22:23;6.50;89.60
37846;DHT22;23686;49.828;8.702;2022-12-05T18:24:49;6.50;87.80
37846;DHT22;23686;49.828;8.702;2022-12-05T18:27:15;6.50;88.10
37846;DHT22;23686;49.828;8.702;2022-12-05T18:29:40;6.50;88.50
37846;DHT22;23686;49.828;8.702;2022-12-05T18:32:06;6.50;88.00
37846;DHT22;23686;49.828;8.702;2022-12-05T18:34:32;6.50;89.40
37846;DHT22;23686;49.828;8.702;2022-12-05T18:36:57;6.50;89.40
37846;DHT22;23686;49.828;8.702;2022-12-05T18:39:23;6.50;90.50
37846;DHT22;23686;49.828;8.702;2022-12-05T18:41:49;6.50;90.80
37846;DHT22;23686;49.828;8.702;2022-12-05T18:44:15;6.50;90.20
37846;DHT22;23686;49.828;8.702;2022-12-05T18:46:40;6.50;91.00
37846;DHT22;23686;49.828;8.702;2022-12-05T18:49:06;6.50;90.60
37846;DHT22;23686;49.828;8.702;2022-12-05T18:51:32;6.50;90.50
37846;DHT22;23686;49.828;8.702;2022-12-05T18:53:58;6.40;90.10
37846;DHT22;23686;49.828;8.702;2022-12-05T18:56:25;6.40;90.20
37846;DHT22;23686;49.828;8.702;2022-12-05T18:58:59;6.40;89.00
37846;DHT22;23686;49.828;8.702;2022-12-05T19:01:27;6.50;90.10
37846;DHT22;23686;49.828;8.702;2022-12-05T19:03:53;6.40;89.00
37846;DHT22;23686;49.828;8.702;2022-12-05T19:06:21;6.50;90.50
37846;DHT22;23686;49.828;8.702;2022-12-05T19:08:47;6.50;90.00
37846;DHT22;23686;49.828;8.702;2022-12-05T19:11:15;6.50;90.10
37846;DHT22;23686;49.828;8.702;2022-12-05T19:13:42;6.50;91.60
37846;DHT22;23686;49.828;8.702;2022-12-05T19:16:10;6.50;91.00
37846;DHT22;23686;49.828;8.702;2022-12-05T19:18:39;6.50;90.20
37846;DHT22;23686;49.828;8.702;2022-12-05T19:21:04;6.50;90.20
37846;DHT22;23686;49.828;8.702;2022-12-05T19:23:32;6.50;90.50
37846;DHT22;23686;49.828;8.702;2022-12-05T19:26:02;6.50;91.30
37846;DHT22;23686;49.828;8.702;2022-12-05T19:28:28;6.50;91.80
37846;DHT22;23686;49.828;8.702;2022-12-05T19:31:02;6.50;91.50
37846;DHT22;23686;49.828;8.702;2022-12-05T19:33:32;6.50;91.10
37846;DHT22;23686;49.828;8.702;2022-12-05T19:36:30;6.50;90.50
37846;DHT22;23686;49.828;8.702;2022-12-05T19:38:54;6.50;91.70
37846;DHT22;23686;49.828;8.702;2022-12-05T19:41:23;6.50;91.70
37846;DHT22;23686;49.828;8.702;2022-12-05T19:43:50;6.50;92.10
37846;DHT22;23686;49.828;8.702;2022-12-05T19:46:23;6.50;91.60
37846;DHT22;23686;49.828;8.702;2022-12-05T19:48:50;6.50;91.90
37846;DHT22;23686;49.828;8.702;2022-12-05T19:51:16;6.50;91.60
37846;DHT22;23686;49.828;8.702;2022-12-05T19:53:42;6.50;91.70
37846;DHT22;23686;49.828;8.702;2022-12-05T19:56:14;6.50;91.70
37846;DHT22;23686;49.828;8.702;2022-12-05T19:58:40;6.50;91.60
37846;DHT22;23686;49.828;8.702;2022-12-05T20:01:10;6.50;91.50
37846;DHT22;23686;49.828;8.702;2022-12-05T20:03:37;6.50;91.70
37846;DHT22;23686;49.828;8.702;2022-12-05T20:06:03;6.50;91.90
37846;DHT22;23686;49.828;8.702;2022-12-05T20:08:30;6.50;91.10
37846;DHT22;23686;49.828;8.702;2022-12-05T20:11:02;6.50;91.60
37846;DHT22;23686;49.828;8.702;2022-12-05T20:13:28;6.50;92.70
37846;DHT22;23686;49.828;8.702;2022-12-05T20:15:53;6.50;92.30
37846;DHT22;23686;49.828;8.702;2022-12-05T20:18:19;6.50;91.60
37846;DHT22;23686;49.828;8.702;2022-12-05T20:20:54;6.50;92.80
37846;DHT22;23686;49.828;8.702;2022-12-05T20:23:20;6.40;93.10
37846;DHT22;23686;49.828;8.702;2022-12-05T20:25:45;6.40;92.60
37846;DHT22;23686;49.828;8.702;2022-12-05T20:28:11;6.40;92.50
37846;DHT22;23686;49.828;8.702;2022-12-05T20:30:36;6.40;92.20
37846;DHT22;23686;49.828;8.702;2022-12-05T20:33:02;6.40;91.20
37846;DHT22;23686;49.828;8.702;2022-12-05T20:35:28;6.40;91.80
37846;DHT22;23686;49.828;8.702;2022-12-05T20:37:53;6.40;90.90
37846;DHT22;23686;49.828;8.702;2022-12-05T20:40:19;6.30;92.30
37846;DHT22;23686;49.828;8.702;2022-12-05T20:42:44;6.30;91.40
37846;DHT22;23686;49.828;8.702;2022-12-05T20:45:10;6.30;91.70
37846;DHT22;23686;49.828;8.702;2022-12-05T20:47:35;6.30;91.30
37846;DHT22;23686;49.828;8.702;2022-12-05T20:50:01;6.30;91.90
37846;DHT22;23686;49.828;8.702;2022-12-05T20:52:26;6.30;91.10
37846;DHT22;23686;49.828;8.702;2022-12-05T20:54:52;6.30;91.30
37846;DHT22;23686;49.828;8.702;2022-12-05T20:57:18;6.30;90.50
37846;DHT22;23686;49.828;8.702;2022-12-05T20:59:43;6.30;90.90
37846;DHT22;23686;49.828;8.702;2022-12-05T21:02:09;6.30;90.40
37846;DHT22;23686;49.828;8.702;2022-12-05T21:04:34;6.30;90.50
37846;DHT22;23686;49.828;8.702;2022-12-05T21:07:04;6.30;90.10
37846;DHT22;23686;49.828;8.702;2022-12-05T21:09:30;6.30;88.80
37846;DHT22;23686;49.828;8.702;2022-12-05T21:11:56;6.30;88.20
37846;DHT22;23686;49.828;8.702;2022-12-05T21:14:23;6.30;88.20
37846;DHT22;23686;49.828;8.702;2022-12-05T21:16:49;6.30;88.50
37846;DHT22;23686;49.828;8.702;2022-12-05T21:19:17;6.30;87.60
37846;DHT22;23686;49.828;8.702;2022-12-05T21:21:44;6.30;87.30
37846;DHT22;23686;49.828;8.702;2022-12-05T21:24:09;6.30;88.60
37846;DHT22;23686;49.828;8.702;2022-12-05T21:26:35;6.30;88.20
37846;DHT22;23686;49.828;8.702;2022-12-05T21:29:02;6.30;87.50
37846;DHT22;23686;49.828;8.702;2022-12-05T21:31:30;6.30;87.60
37846;DHT22;23686;49.828;8.702;2022-12-05T21:34:04;6.30;87.80
37846;DHT22;23686;49.828;8.702;2022-12-05T21:36:32;6.30;87.00
37846;DHT22;23686;49.828;8.702;2022-12-05T21:38:58;6.30;87.10
37846;DHT22;23686;49.828;8.702;2022-12-05T21:41:25;6.30;87.00
37846;DHT22;23686;49.828;8.702;2022-12-05T21:43:51;6.30;85.80
37846;DHT22;23686;49.828;8.702;2022-12-05T21:46:16;6.30;87.50
37846;DHT22;23686;49.828;8.702;2022-12-05T21:48:42;6.30;86.20
37846;DHT22;23686;49.828;8.702;2022-12-05T21:51:10;6.30;86.20
37846;DHT22;23686;49.828;8.702;2022-12-05T21:53:36;6.40;85.70
37846;DHT22;23686;49.828;8.702;2022-12-05T21:56:09;6.40;86.20
37846;DHT22;23686;49.828;8.702;2022-12-05T21:58:36;6.40;86.70
37846;DHT22;23686;49.828;8.702;2022-12-05T22:01:02;6.40;86.40
37846;DHT22;23686;49.828;8.702;2022-12-05T22:03:27;6.40;86.60
37846;DHT22;23686;49.828;8.702;2022-12-05T22:06:05;6.40;85.80
37846;DHT22;23686;49.828;8.702;2022-12-05T22:08:31;6.40;85.90
37846;DHT22;23686;49.828;8.702;2022-12-05T22:11:11;6.40;85.90
37846;DHT22;23686;49.828;8.702;2022-12-05T22:13:38;6.40;85.90
37846;DHT22;23686;49.828;8.702;2022-12-05T22:16:04;6.50;86.40
37846;DHT22;23686;49.828;8.702;2022-12-05T22:18:30;6.50;85.10
37846;DHT22;23686;49.828;8.702;2022-12-05T22:21:04;6.50;86.20
37846;DHT22;23686;49.828;8.702;2022-12-05T22:23:31;6.50;86.30
37846;DHT22;23686;49.828;8.702;2022-12-05T22:28:28;6.50;86.50
37846;DHT22;23686;49.828;8.702;2022-12-05T22:30:55;6.50;86.10
37846;DHT22;23686;49.828;8.702;2022-12-05T22:33:22;6.50;87.20
37846;DHT22;23686;49.828;8.702;2022-12-05T22:35:55;6.50;85.40
37846;DHT22;23686;49.828;8.702;2022-12-05T22:38:32;6.50;85.70
37846;DHT22;23686;49.828;8.702;2022-12-05T22:41:00;6.40;85.10
37846;DHT22;23686;49.828;8.702;2022-12-05T22:43:27;6.40;84.90
37846;DHT22;23686;49.828;8.702;2022-12-05T22:45:52;6.40;85.00
37846;DHT22;23686;49.828;8.702;2022-12-05T22:48:18;6.40;84.00
37846;DHT22;23686;49.828;8.702;2022-12-05T22:50:48;6.40;84.10
37846;DHT22;23686;49.828;8.702;2022-12-05T22:53:17;6.40;82.70
37846;DHT22;23686;49.828;8.702;2022-12-05T22:55:43;6.40;82.20
37846;DHT22;23686;49.828;8.702;2022-12-05T22:58:08;6.50;82.80
37846;DHT22;23686;49.828;8.702;2022-12-05T23:00:34;6.40;82.50
37846;DHT22;23686;49.828;8.702;2022-12-05T23:03:00;6.40;82.00
37846;DHT22;23686;49.828;8.702;2022-12-05T23:05:26;6.40;80.60
37846;DHT22;23686;49.828;8.702;2022-12-05T23:07:51;6.40;79.90
37846;DHT22;23686;49.828;8.702;2022-12-05T23:10:17;6.40;78.00
37846;DHT22;23686;49.828;8.702;2022-12-05T23:12:42;6.40;78.10
37846;DHT22;23686;49.828;8.702;2022-12-05T23:15:09;6.40;77.60
37846;DHT22;23686;49.828;8.702;2022-12-05T23:17:34;6.40;77.50
37846;DHT22;23686;49.828;8.702;2022-12-05T23:20:00;6.40;77.10
37846;DHT22;23686;49.828;8.702;2022-12-05T23:22:26;6.40;76.20
37846;DHT22;23686;49.828;8.702;2022-12-05T23:24:51;6.40;74.90
37846;DHT22;23686;49.828;8.702;2022-12-05T23:27:17;6.40;74.00
37846;DHT22;23686;49.828;8.702;2022-12-05T23:29:44;6.40;74.10
37846;DHT22;23686;49.828;8.702;2022-12-05T23:32:10;6.40;73.90
37846;DHT22;23686;49.828;8.702;2022-12-05T23:34:35;6.40;72.90
37846;DHT22;23686;49.828;8.702;2022-12-05T23:37:01;6.40;72.80
37846;DHT22;23686;49.828;8.702;2022-12-05T23:39:26;6.40;73.10
37846;DHT22;23686;49.828;8.702;2022-12-05T23:41:52;6.40;71.90
37846;DHT22;23686;49.828;8.702;2022-12-05T23:44:19;6.40;71.90
37846;DHT22;23686;49.828;8.702;2022-12-05T23:46:45;6.50;72.10
37846;DHT22;23686;49.828;8.702;2022-12-05T23:49:10;6.40;71.80
37846;DHT22;23686;49.828;8.702;2022-12-05T23:51:36;6.50;72.30
37846;DHT22;23686;49.828;8.702;2022-12-05T23:54:05;6.40;70.60
37846;DHT22;23686;49.828;8.702;2022-12-05T23:56:32;6.40;69.50
37846;DHT22;23686;49.828;8.702;2022-12-05T23:58:59;6.50;68.10
